Caerdydd, United Kingdom

03:56 PM GMT ar Tachwedd 19, 2017 (GMT +0000)
Pontcanna | | Change Station

Elev 33 ft 51.49 °N, 3.19 °W | Updated 10 seconds ago

Cymylog Yn Bennaf
Cymylog Yn Bennaf
49.5 °F
Feels Like 50 °F
N
0.0
Gwynt Cyfnewidiol Gwynt from GGDw
Gusts 0.0 mph

Heddiw
High -- | Low -- °F
--% Chance of Precip.
Yesterday
High -- | Low -- °F
Precip. -- mod
Gwasgedd 30.24 mod
Gwelededd 6.2 Milltiroedd
Clouds Cymylog Yn Bennaf 2800 ft
Cymylog Yn Bennaf 4800 ft
Oerfel Gwynt 50 °F
Gwlithbwynt 41 °F
Lleithder 73%
Rainfall 0.00 mod
Snow Depth Not available.
7:37 AM 4:18 PM
New, 1% visible
METAR EGFF 191550Z 16001KT 9999 BKN028 BKN048 09/05 Q1024
Gwasgedd 30.24 mod
Gwelededd 6.2 Milltiroedd
Clouds Cymylog Yn Bennaf 2800 ft
Cymylog Yn Bennaf 4800 ft
Oerfel Gwynt 50 °F
Gwlithbwynt 41 °F
Lleithder 73%
Rainfall 0.00 mod
Snow Depth Not available.
7:37 AM 4:18 PM
New, 1% visible
METAR EGFF 191550Z 16001KT 9999 BKN028 BKN048 09/05 Q1024

Get Severe Weather Alerts

Thanks for signing up!

Be on the lookout for a verification email in your inbox.

You'll start receiving the daily forecast at 6 AM.

×

10-Day Weather Forecast

×

Almanac

Astronomy

Nov. 19, 2017 Rise Set
Actual Time
Civil Twilight
Nautical Twilight
Astronomical Twilight
Moon
Length Of Visible Light
Length of Day
Tomorrow will be .
, % of the Moon is Illuminated

Today's Extremes

Country Highs Country Lows

Community

WunderPhotos

Category 6

Welcome to Category 6. This is the collective home for Weather Underground's featured writeups by Dr. Jeff Masters (right), Bob Henson (left), Chris Burt, and other regular contributors.

Nearby

Air Quality

  Air Quality AQ Index Pollutant
Not available.

Snow Depth

Station Depth Elevation

Earthquake Activity

City Distance Mag. Time & Date
Minimum magnitude displayed is 2.5.

Coastal Water Temperatures

Lle Tymheredd

Stations

Nearby Weather Stations

Station Location Temp Oerfel Gwynt Gwlithbwynt Lleithder Gwynt Precip. Elev Diweddarwyd Type